sensor_id;sensor_type;location;lat;lon;timestamp;pressure;altitude;pressure_sealevel;temperature
76007;BMP280;64699;0.000;0.000;2022-11-20T00:00:50;100450.91;;;17.14
76007;BMP280;64699;0.000;0.000;2022-11-20T00:03:17;100450.91;;;17.14
76007;BMP280;64699;0.000;0.000;2022-11-20T00:05:44;100455.91;;;17.16
76007;BMP280;64699;0.000;0.000;2022-11-20T00:08:11;100454.72;;;17.11
76007;BMP280;64699;0.000;0.000;2022-11-20T00:10:37;100460.63;;;17.15
76007;BMP280;64699;0.000;0.000;2022-11-20T00:13:04;100455.44;;;17.12
76007;BMP280;64699;0.000;0.000;2022-11-20T00:15:31;100460.22;;;17.11
76007;BMP280;64699;0.000;0.000;2022-11-20T00:17:56;100458.47;;;17.08
76007;BMP280;64699;0.000;0.000;2022-11-20T00:20:23;100463.44;;;17.10
76007;BMP280;64699;0.000;0.000;2022-11-20T00:22:50;100447.06;;;17.04
76007;BMP280;64699;0.000;0.000;2022-11-20T00:25:17;100452.78;;;17.06
76007;BMP280;64699;0.000;0.000;2022-11-20T00:27:43;100448.75;;;17.07
76007;BMP280;64699;0.000;0.000;2022-11-20T00:30:09;100451.28;;;17.05
76007;BMP280;64699;0.000;0.000;2022-11-20T00:32:35;100446.56;;;17.06
76007;BMP280;64699;0.000;0.000;2022-11-20T00:35:01;100452.78;;;17.06
76007;BMP280;64699;0.000;0.000;2022-11-20T00:37:28;100448.31;;;17.03
76007;BMP280;64699;0.000;0.000;2022-11-20T00:39:53;100451.28;;;17.05
76007;BMP280;64699;0.000;0.000;2022-11-20T00:42:19;100444.09;;;17.02
76007;BMP280;64699;0.000;0.000;2022-11-20T00:44:46;100442.81;;;17.03
76007;BMP280;64699;0.000;0.000;2022-11-20T00:47:12;100437.16;;;16.96
76007;BMP280;64699;0.000;0.000;2022-11-20T00:49:38;100438.66;;;16.97
76007;BMP280;64699;0.000;0.000;2022-11-20T00:52:04;100439.41;;;16.97
76007;BMP280;64699;0.000;0.000;2022-11-20T00:54:31;100436.25;;;16.93
76007;BMP280;64699;0.000;0.000;2022-11-20T00:56:56;100428.22;;;16.95
76007;BMP280;64699;0.000;0.000;2022-11-20T00:59:23;100431.75;;;16.90
76007;BMP280;64699;0.000;0.000;2022-11-20T01:01:50;100427.53;;;16.89
76007;BMP280;64699;0.000;0.000;2022-11-20T01:04:16;100431.75;;;16.90
76007;BMP280;64699;0.000;0.000;2022-11-20T01:06:43;100423.75;;;16.92
76007;BMP280;64699;0.000;0.000;2022-11-20T01:09:11;100430.06;;;16.87
76007;BMP280;64699;0.000;0.000;2022-11-20T01:11:38;100431.03;;;16.90
76007;BMP280;64699;0.000;0.000;2022-11-20T01:14:06;100413.34;;;16.85
76007;BMP280;64699;0.000;0.000;2022-11-20T01:16:37;100412.13;;;16.86
76007;BMP280;64699;0.000;0.000;2022-11-20T01:19:05;100422.56;;;16.88
76007;BMP280;64699;0.000;0.000;2022-11-20T01:21:33;100421.56;;;16.85
76007;BMP280;64699;0.000;0.000;2022-11-20T01:24:01;100413.16;;;16.83
76007;BMP280;64699;0.000;0.000;2022-11-20T01:26:31;100408.69;;;16.80
76007;BMP280;64699;0.000;0.000;2022-11-20T01:28:58;100406.00;;;16.75
76007;BMP280;64699;0.000;0.000;2022-11-20T01:31:27;100418.97;;;16.74
76007;BMP280;64699;0.000;0.000;2022-11-20T01:33:56;100412.03;;;16.73
76007;BMP280;64699;0.000;0.000;2022-11-20T01:36:24;100410.25;;;16.76
76007;BMP280;64699;0.000;0.000;2022-11-20T01:38:52;100402.31;;;16.72
76007;BMP280;64699;0.000;0.000;2022-11-20T01:41:19;100403.78;;;16.73
76007;BMP280;64699;0.000;0.000;2022-11-20T01:44:04;100411.03;;;16.71
76007;BMP280;64699;0.000;0.000;2022-11-20T01:46:32;100412.22;;;16.75
76007;BMP280;64699;0.000;0.000;2022-11-20T01:49:04;100409.19;;;16.79
76007;BMP280;64699;0.000;0.000;2022-11-20T01:54:25;100412.31;;;16.88
76007;BMP280;64699;0.000;0.000;2022-11-20T01:56:54;100403.59;;;16.90
76007;BMP280;64699;0.000;0.000;2022-11-20T01:59:21;100405.56;;;16.89
76007;BMP280;64699;0.000;0.000;2022-11-20T02:01:48;100405.06;;;16.91
76007;BMP280;64699;0.000;0.000;2022-11-20T02:04:15;100399.81;;;16.93
76007;BMP280;64699;0.000;0.000;2022-11-20T02:06:51;100404.00;;;16.94
76007;BMP280;64699;0.000;0.000;2022-11-20T02:09:22;100395.59;;;16.92
76007;BMP280;64699;0.000;0.000;2022-11-20T02:11:49;100395.09;;;16.93
76007;BMP280;64699;0.000;0.000;2022-11-20T02:14:16;100391.06;;;16.94
76007;BMP280;64699;0.000;0.000;2022-11-20T02:16:44;100388.53;;;16.96
76007;BMP280;64699;0.000;0.000;2022-11-20T02:21:47;100379.63;;;16.90
76007;BMP280;64699;0.000;0.000;2022-11-20T02:24:18;100385.09;;;16.90
76007;BMP280;64699;0.000;0.000;2022-11-20T02:26:47;100385.09;;;16.90
76007;BMP280;64699;0.000;0.000;2022-11-20T02:29:23;100388.34;;;16.89
76007;BMP280;64699;0.000;0.000;2022-11-20T02:31:52;100387.41;;;16.86
76007;BMP280;64699;0.000;0.000;2022-11-20T02:34:20;100383.13;;;16.91
76007;BMP280;64699;0.000;0.000;2022-11-20T02:36:46;100381.63;;;16.90
76007;BMP280;64699;0.000;0.000;2022-11-20T02:39:12;100383.91;;;16.86
76007;BMP280;64699;0.000;0.000;2022-11-20T02:41:39;100384.97;;;16.83
76007;BMP280;64699;0.000;0.000;2022-11-20T02:44:06;100383.16;;;16.85
76007;BMP280;64699;0.000;0.000;2022-11-20T02:46:33;100383.50;;;16.82
76007;BMP280;64699;0.000;0.000;2022-11-20T02:49:00;100391.19;;;16.83
76007;BMP280;64699;0.000;0.000;2022-11-20T02:51:26;100388.66;;;16.85
76007;BMP280;64699;0.000;0.000;2022-11-20T02:53:52;100383.50;;;16.82
76007;BMP280;64699;0.000;0.000;2022-11-20T02:56:18;100398.44;;;16.81
76007;BMP280;64699;0.000;0.000;2022-11-20T02:58:44;100396.22;;;16.79
76007;BMP280;64699;0.000;0.000;2022-11-20T03:01:10;100400.22;;;16.78
76007;BMP280;64699;0.000;0.000;2022-11-20T03:03:37;100395.75;;;16.75
76007;BMP280;64699;0.000;0.000;2022-11-20T03:06:04;100396.00;;;16.77
76007;BMP280;64699;0.000;0.000;2022-11-20T03:08:31;100398.31;;;16.73
76007;BMP280;64699;0.000;0.000;2022-11-20T03:11:02;100395.03;;;16.75
76007;BMP280;64699;0.000;0.000;2022-11-20T03:13:28;100393.53;;;16.74
76007;BMP280;64699;0.000;0.000;2022-11-20T03:16:05;100394.81;;;16.73
76007;BMP280;64699;0.000;0.000;2022-11-20T03:18:32;100386.66;;;16.67
76007;BMP280;64699;0.000;0.000;2022-11-20T03:20:58;100390.16;;;16.68
76007;BMP280;64699;0.000;0.000;2022-11-20T03:23:25;100394.88;;;16.67
76007;BMP280;64699;0.000;0.000;2022-11-20T03:25:52;100390.88;;;16.68
76007;BMP280;64699;0.000;0.000;2022-11-20T03:28:19;100391.09;;;16.70
76007;BMP280;64699;0.000;0.000;2022-11-20T03:30:45;100386.66;;;16.67
76007;BMP280;64699;0.000;0.000;2022-11-20T03:33:12;100389.38;;;16.67
76007;BMP280;64699;0.000;0.000;2022-11-20T03:35:40;100387.91;;;16.66
76007;BMP280;64699;0.000;0.000;2022-11-20T03:38:07;100380.16;;;16.65
76007;BMP280;64699;0.000;0.000;2022-11-20T03:40:33;100390.94;;;16.63
76007;BMP280;64699;0.000;0.000;2022-11-20T03:43:00;100388.19;;;16.63
76007;BMP280;64699;0.000;0.000;2022-11-20T03:45:27;100385.22;;;16.61
76007;BMP280;64699;0.000;0.000;2022-11-20T03:47:54;100394.19;;;16.61
76007;BMP280;64699;0.000;0.000;2022-11-20T03:50:20;100386.97;;;16.58
76007;BMP280;64699;0.000;0.000;2022-11-20T03:52:47;100384.03;;;16.56
76007;BMP280;64699;0.000;0.000;2022-11-20T03:55:13;100387.50;;;16.57
76007;BMP280;64699;0.000;0.000;2022-11-20T03:57:40;100382.78;;;16.57
76007;BMP280;64699;0.000;0.000;2022-11-20T04:00:05;100380.13;;;16.70
76007;BMP280;64699;0.000;0.000;2022-11-20T04:02:32;100380.78;;;16.76
76007;BMP280;64699;0.000;0.000;2022-11-20T04:04:57;100368.41;;;16.88
76007;BMP280;64699;0.000;0.000;2022-11-20T04:07:24;100380.31;;;16.96
76007;BMP280;64699;0.000;0.000;2022-11-20T04:09:51;100379.50;;;17.01
76007;BMP280;64699;0.000;0.000;2022-11-20T04:12:16;100378.97;;;17.03
76007;BMP280;64699;0.000;0.000;2022-11-20T04:14:42;100380.69;;;17.06
76007;BMP280;64699;0.000;0.000;2022-11-20T04:17:08;100379.34;;;17.12
76007;BMP280;64699;0.000;0.000;2022-11-20T04:19:35;100373.84;;;17.12
76007;BMP280;64699;0.000;0.000;2022-11-20T04:22:02;100369.81;;;17.13
76007;BMP280;64699;0.000;0.000;2022-11-20T04:24:28;100367.31;;;17.15
76007;BMP280;64699;0.000;0.000;2022-11-20T04:26:54;100366.56;;;17.15
76007;BMP280;64699;0.000;0.000;2022-11-20T04:29:22;100359.31;;;17.17
76007;BMP280;64699;0.000;0.000;2022-11-20T04:31:47;100363.81;;;17.15
76007;BMP280;64699;0.000;0.000;2022-11-20T04:34:14;100363.06;;;17.14
76007;BMP280;64699;0.000;0.000;2022-11-20T04:36:41;100358.72;;;17.06
76007;BMP280;64699;0.000;0.000;2022-11-20T04:39:11;100359.84;;;16.97
76007;BMP280;64699;0.000;0.000;2022-11-20T04:41:41;100354.91;;;16.90
76007;BMP280;64699;0.000;0.000;2022-11-20T04:44:08;100361.66;;;16.89
76007;BMP280;64699;0.000;0.000;2022-11-20T04:46:37;100354.69;;;16.88
76007;BMP280;64699;0.000;0.000;2022-11-20T04:49:04;100351.50;;;16.84
76007;BMP280;64699;0.000;0.000;2022-11-20T04:51:29;100347.75;;;16.87
76007;BMP280;64699;0.000;0.000;2022-11-20T04:53:56;100349.50;;;16.85
76007;BMP280;64699;0.000;0.000;2022-11-20T04:56:22;100346.56;;;16.83
76007;BMP280;64699;0.000;0.000;2022-11-20T04:58:47;100346.84;;;16.79
76007;BMP280;64699;0.000;0.000;2022-11-20T05:01:18;100339.88;;;16.78
76007;BMP280;64699;0.000;0.000;2022-11-20T05:03:43;100337.56;;;16.82
76007;BMP280;64699;0.000;0.000;2022-11-20T05:06:11;100334.09;;;16.82
76007;BMP280;64699;0.000;0.000;2022-11-20T05:08:39;100337.34;;;16.80
76007;BMP280;64699;0.000;0.000;2022-11-20T05:11:05;100336.09;;;16.81
76007;BMP280;64699;0.000;0.000;2022-11-20T05:13:32;100331.41;;;16.76
76007;BMP280;64699;0.000;0.000;2022-11-20T05:16:02;100337.44;;;16.75
76007;BMP280;64699;0.000;0.000;2022-11-20T05:18:29;100325.63;;;16.80
76007;BMP280;64699;0.000;0.000;2022-11-20T05:20:55;100328.16;;;16.78
76007;BMP280;64699;0.000;0.000;2022-11-20T05:23:21;100330.41;;;16.74
76007;BMP280;64699;0.000;0.000;2022-11-20T05:25:46;100322.94;;;16.74
76007;BMP280;64699;0.000;0.000;2022-11-20T05:28:13;100333.94;;;16.74
76007;BMP280;64699;0.000;0.000;2022-11-20T05:30:40;100335.34;;;16.81
76007;BMP280;64699;0.000;0.000;2022-11-20T05:33:05;100341.81;;;16.83
76007;BMP280;64699;0.000;0.000;2022-11-20T05:35:32;100333.78;;;16.85
76007;BMP280;64699;0.000;0.000;2022-11-20T05:37:58;100330.84;;;16.83
76007;BMP280;64699;0.000;0.000;2022-11-20T05:40:23;100333.66;;;16.78
76007;BMP280;64699;0.000;0.000;2022-11-20T05:42:50;100325.69;;;16.74
76007;BMP280;64699;0.000;0.000;2022-11-20T05:45:15;100324.44;;;16.75
76007;BMP280;64699;0.000;0.000;2022-11-20T05:47:40;100327.25;;;16.70
76007;BMP280;64699;0.000;0.000;2022-11-20T05:50:07;100319.94;;;16.78
76007;BMP280;64699;0.000;0.000;2022-11-20T05:52:33;100313.03;;;16.71
76007;BMP280;64699;0.000;0.000;2022-11-20T05:54:59;100307.56;;;16.71
76007;BMP280;64699;0.000;0.000;2022-11-20T05:57:26;100302.50;;;16.75
76007;BMP280;64699;0.000;0.000;2022-11-20T05:59:52;100299.25;;;16.77
76007;BMP280;64699;0.000;0.000;2022-11-20T06:02:19;100307.97;;;16.75
76007;BMP280;64699;0.000;0.000;2022-11-20T06:04:46;100307.78;;;16.73
76007;BMP280;64699;0.000;0.000;2022-11-20T06:07:12;100308.47;;;16.74
76007;BMP280;64699;0.000;0.000;2022-11-20T06:09:39;100307.25;;;16.75
76007;BMP280;64699;0.000;0.000;2022-11-20T06:12:05;100307.78;;;16.73
76007;BMP280;64699;0.000;0.000;2022-11-20T06:14:32;100317.69;;;16.76
76007;BMP280;64699;0.000;0.000;2022-11-20T06:16:58;100311.78;;;16.72
76007;BMP280;64699;0.000;0.000;2022-11-20T06:19:26;100312.78;;;16.69
76007;BMP280;64699;0.000;0.000;2022-11-20T06:21:52;100307.56;;;16.71
76007;BMP280;64699;0.000;0.000;2022-11-20T06:24:18;100314.94;;;16.76
76007;BMP280;64699;0.000;0.000;2022-11-20T06:26:44;100319.78;;;16.70
76007;BMP280;64699;0.000;0.000;2022-11-20T06:29:10;100317.03;;;16.70
76007;BMP280;64699;0.000;0.000;2022-11-20T06:31:37;100325.50;;;16.72
76007;BMP280;64699;0.000;0.000;2022-11-20T06:34:05;100318.53;;;16.71
76007;BMP280;64699;0.000;0.000;2022-11-20T06:36:33;100318.94;;;16.75
76007;BMP280;64699;0.000;0.000;2022-11-20T06:39:00;100307.97;;;16.75
76007;BMP280;64699;0.000;0.000;2022-11-20T06:41:27;100311.97;;;16.74
76007;BMP280;64699;0.000;0.000;2022-11-20T06:43:54;100300.50;;;16.76
76007;BMP280;64699;0.000;0.000;2022-11-20T06:46:20;100296.28;;;16.75
76007;BMP280;64699;0.000;0.000;2022-11-20T06:48:48;100301.00;;;16.74
76007;BMP280;64699;0.000;0.000;2022-11-20T06:51:17;100303.25;;;16.76
76007;BMP280;64699;0.000;0.000;2022-11-20T06:53:43;100306.50;;;16.74
76007;BMP280;64699;0.000;0.000;2022-11-20T06:56:09;100302.50;;;16.75
76007;BMP280;64699;0.000;0.000;2022-11-20T06:58:36;100299.75;;;16.75
76007;BMP280;64699;0.000;0.000;2022-11-20T07:01:06;100302.50;;;16.75
76007;BMP280;64699;0.000;0.000;2022-11-20T07:03:32;100295.53;;;16.74
76007;BMP280;64699;0.000;0.000;2022-11-20T07:05:59;100291.75;;;16.77
76007;BMP280;64699;0.000;0.000;2022-11-20T07:08:25;100299.75;;;16.75
76007;BMP280;64699;0.000;0.000;2022-11-20T07:10:52;100295.53;;;16.74
76007;BMP280;64699;0.000;0.000;2022-11-20T07:13:21;100299.25;;;16.77
76007;BMP280;64699;0.000;0.000;2022-11-20T07:15:48;100297.22;;;16.77
76007;BMP280;64699;0.000;0.000;2022-11-20T07:18:14;100297.22;;;16.77
76007;BMP280;64699;0.000;0.000;2022-11-20T07:20:40;100292.59;;;16.72
76007;BMP280;64699;0.000;0.000;2022-11-20T07:23:06;100291.50;;;16.75
76007;BMP280;64699;0.000;0.000;2022-11-20T07:25:33;100292.28;;;16.76
76007;BMP280;64699;0.000;0.000;2022-11-20T07:28:00;100279.50;;;16.78
76007;BMP280;64699;0.000;0.000;2022-11-20T07:30:26;100291.97;;;16.79
76007;BMP280;64699;0.000;0.000;2022-11-20T07:32:52;100290.47;;;16.78
76007;BMP280;64699;0.000;0.000;2022-11-20T07:35:17;100287.97;;;16.80
76007;BMP280;64699;0.000;0.000;2022-11-20T07:37:43;100282.97;;;16.79
76007;BMP280;64699;0.000;0.000;2022-11-20T07:40:12;100287.22;;;16.80
76007;BMP280;64699;0.000;0.000;2022-11-20T07:42:38;100285.00;;;16.78
76007;BMP280;64699;0.000;0.000;2022-11-20T07:45:05;100291.50;;;16.75
76007;BMP280;64699;0.000;0.000;2022-11-20T07:47:35;100282.03;;;16.76
76007;BMP280;64699;0.000;0.000;2022-11-20T07:50:03;100285.00;;;16.78
76007;BMP280;64699;0.000;0.000;2022-11-20T07:52:29;100288.03;;;16.75
76007;BMP280;64699;0.000;0.000;2022-11-20T07:54:55;100284.53;;;16.74
76007;BMP280;64699;0.000;0.000;2022-11-20T07:57:22;100287.22;;;16.80
76007;BMP280;64699;0.000;0.000;2022-11-20T07:59:48;100288.19;;;16.82
76007;BMP280;64699;0.000;0.000;2022-11-20T08:02:14;100279.75;;;16.80
76007;BMP280;64699;0.000;0.000;2022-11-20T08:04:40;100281.81;;;16.74
76007;BMP280;64699;0.000;0.000;2022-11-20T08:07:05;100273.31;;;16.78
76007;BMP280;64699;0.000;0.000;2022-11-20T08:09:30;100268.25;;;16.82
76007;BMP280;64699;0.000;0.000;2022-11-20T08:11:56;100272.75;;;16.79
76007;BMP280;64699;0.000;0.000;2022-11-20T08:14:40;100264.75;;;16.81
76007;BMP280;64699;0.000;0.000;2022-11-20T08:17:06;100270.03;;;16.79
76007;BMP280;64699;0.000;0.000;2022-11-20T08:19:32;100272.75;;;16.79
76007;BMP280;64699;0.000;0.000;2022-11-20T08:21:57;100273.31;;;16.78
76007;BMP280;64699;0.000;0.000;2022-11-20T08:24:23;100272.31;;;16.75
76007;BMP280;64699;0.000;0.000;2022-11-20T08:26:49;100274.03;;;16.78
76007;BMP280;64699;0.000;0.000;2022-11-20T08:29:15;100276.78;;;16.78
76007;BMP280;64699;0.000;0.000;2022-11-20T08:31:40;100274.03;;;16.78
76007;BMP280;64699;0.000;0.000;2022-11-20T08:34:07;100279.66;;;16.86
76007;BMP280;64699;0.000;0.000;2022-11-20T08:36:33;100263.94;;;16.86
76007;BMP280;64699;0.000;0.000;2022-11-20T08:39:00;100259.50;;;16.83
76007;BMP280;64699;0.000;0.000;2022-11-20T08:41:27;100266.09;;;16.93
76007;BMP280;64699;0.000;0.000;2022-11-20T08:43:56;100258.66;;;16.88
76007;BMP280;64699;0.000;0.000;2022-11-20T08:46:22;100258.00;;;16.82
76007;BMP280;64699;0.000;0.000;2022-11-20T08:48:48;100257.94;;;16.88
76007;BMP280;64699;0.000;0.000;2022-11-20T08:51:13;100251.91;;;16.89
76007;BMP280;64699;0.000;0.000;2022-11-20T08:53:41;100252.13;;;16.91
76007;BMP280;64699;0.000;0.000;2022-11-20T08:56:09;100249.09;;;16.95
76007;BMP280;64699;0.000;0.000;2022-11-20T08:58:45;100242.00;;;16.86
76007;BMP280;64699;0.000;0.000;2022-11-20T09:01:11;100243.41;;;16.93
76007;BMP280;64699;0.000;0.000;2022-11-20T09:03:40;100234.69;;;16.89
76007;BMP280;64699;0.000;0.000;2022-11-20T09:06:07;100230.44;;;16.93
76007;BMP280;64699;0.000;0.000;2022-11-20T09:08:35;100236.34;;;16.97
76007;BMP280;64699;0.000;0.000;2022-11-20T09:11:02;100229.97;;;16.89
76007;BMP280;64699;0.000;0.000;2022-11-20T09:13:28;100216.06;;;16.87
76007;BMP280;64699;0.000;0.000;2022-11-20T09:15:59;100221.53;;;16.87
76007;BMP280;64699;0.000;0.000;2022-11-20T09:18:27;100225.97;;;16.90
76007;BMP280;64699;0.000;0.000;2022-11-20T09:20:58;100218.69;;;16.93
76007;BMP280;64699;0.000;0.000;2022-11-20T09:23:25;100223.44;;;16.92
76007;BMP280;64699;0.000;0.000;2022-11-20T09:25:52;100223.44;;;16.92
76007;BMP280;64699;0.000;0.000;2022-11-20T09:28:25;100212.47;;;16.92
76007;BMP280;64699;0.000;0.000;2022-11-20T09:30:54;100206.44;;;16.94
76007;BMP280;64699;0.000;0.000;2022-11-20T09:33:22;100196.22;;;16.94
76007;BMP280;64699;0.000;0.000;2022-11-20T09:35:49;100194.19;;;16.95
76007;BMP280;64699;0.000;0.000;2022-11-20T09:38:16;100191.91;;;16.99
76007;BMP280;64699;0.000;0.000;2022-11-20T09:40:49;100186.94;;;16.97
76007;BMP280;64699;0.000;0.000;2022-11-20T09:50:43;100187.75;;;16.92
76007;BMP280;64699;0.000;0.000;2022-11-20T09:55:50;100194.97;;;16.95
76007;BMP280;64699;0.000;0.000;2022-11-20T10:00:50;100182.81;;;16.91
76007;BMP280;64699;0.000;0.000;2022-11-20T10:03:19;100189.28;;;16.93
76007;BMP280;64699;0.000;0.000;2022-11-20T10:05:53;100177.00;;;16.94
76007;BMP280;64699;0.000;0.000;2022-11-20T10:08:28;100182.91;;;16.98
76007;BMP280;64699;0.000;0.000;2022-11-20T10:11:06;100173.00;;;16.95
76007;BMP280;64699;0.000;0.000;2022-11-20T10:21:38;100178.09;;;17.04
76007;BMP280;64699;0.000;0.000;2022-11-20T10:24:19;100178.19;;;16.99
76007;BMP280;64699;0.000;0.000;2022-11-20T10:27:02;100175.66;;;17.01
76007;BMP280;64699;0.000;0.000;2022-11-20T10:29:32;100175.97;;;16.97
76007;BMP280;64699;0.000;0.000;2022-11-20T10:32:07;100170.91;;;17.01
76007;BMP280;64699;0.000;0.000;2022-11-20T10:34:48;100169.84;;;17.04
76007;BMP280;64699;0.000;0.000;2022-11-20T10:37:27;100162.34;;;16.92
76007;BMP280;64699;0.000;0.000;2022-11-20T10:42:44;100157.28;;;16.96
76007;BMP280;64699;0.000;0.000;2022-11-20T10:47:40;100151.47;;;16.99
76007;BMP280;64699;0.000;0.000;2022-11-20T10:50:08;100152.94;;;17.00
76007;BMP280;64699;0.000;0.000;2022-11-20T10:52:45;100143.88;;;17.05
76007;BMP280;64699;0.000;0.000;2022-11-20T10:55:24;100153.91;;;17.03
76007;BMP280;64699;0.000;0.000;2022-11-20T11:00:37;100136.91;;;17.04
76007;BMP280;64699;0.000;0.000;2022-11-20T11:03:27;100147.38;;;17.06
76007;BMP280;64699;0.000;0.000;2022-11-20T11:08:22;100143.88;;;17.05
76007;BMP280;64699;0.000;0.000;2022-11-20T11:10:54;100140.50;;;16.99
76007;BMP280;64699;0.000;0.000;2022-11-20T11:13:26;100146.41;;;17.03
76007;BMP280;64699;0.000;0.000;2022-11-20T11:15:52;100152.63;;;17.04
76007;BMP280;64699;0.000;0.000;2022-11-20T11:18:30;100147.47;;;17.00
76007;BMP280;64699;0.000;0.000;2022-11-20T11:20:57;100150.19;;;17.00
76007;BMP280;64699;0.000;0.000;2022-11-20T11:23:28;100154.00;;;16.97
76007;BMP280;64699;0.000;0.000;2022-11-20T11:26:22;100156.44;;;17.01
76007;BMP280;64699;0.000;0.000;2022-11-20T11:28:54;100149.06;;;17.09
76007;BMP280;64699;0.000;0.000;2022-11-20T11:31:22;100142.63;;;17.06
76007;BMP280;64699;0.000;0.000;2022-11-20T11:33:50;100130.69;;;17.04
76007;BMP280;64699;0.000;0.000;2022-11-20T11:36:16;100141.47;;;17.02
76007;BMP280;64699;0.000;0.000;2022-11-20T11:38:42;100135.56;;;16.98
76007;BMP280;64699;0.000;0.000;2022-11-20T11:41:12;100129.50;;;16.99
76007;BMP280;64699;0.000;0.000;2022-11-20T11:43:51;100137.75;;;16.99
76007;BMP280;64699;0.000;0.000;2022-11-20T11:46:36;100131.53;;;16.99
76007;BMP280;64699;0.000;0.000;2022-11-20T11:51:34;100132.06;;;16.97
76007;BMP280;64699;0.000;0.000;2022-11-20T11:54:03;100129.66;;;17.07
76007;BMP280;64699;0.000;0.000;2022-11-20T11:56:33;100129.84;;;17.09
76007;BMP280;64699;0.000;0.000;2022-11-20T11:59:00;100127.75;;;17.02
76007;BMP280;64699;0.000;0.000;2022-11-20T12:06:29;100117.81;;;16.99
76007;BMP280;64699;0.000;0.000;2022-11-20T12:09:01;100129.22;;;17.03
76007;BMP280;64699;0.000;0.000;2022-11-20T12:14:01;100106.63;;;17.10
76007;BMP280;64699;0.000;0.000;2022-11-20T12:16:30;100110.34;;;17.12
76007;BMP280;64699;0.000;0.000;2022-11-20T12:19:00;100111.72;;;17.06
76007;BMP280;64699;0.000;0.000;2022-11-20T12:21:28;100107.38;;;17.10
76007;BMP280;64699;0.000;0.000;2022-11-20T12:29:15;100100.19;;;17.07
76007;BMP280;64699;0.000;0.000;2022-11-20T12:31:55;100097.75;;;17.04
76007;BMP280;64699;0.000;0.000;2022-11-20T12:37:19;100093.41;;;17.08
76007;BMP280;64699;0.000;0.000;2022-11-20T12:39:51;100091.00;;;17.05
76007;BMP280;64699;0.000;0.000;2022-11-20T12:42:24;100095.56;;;17.02
76007;BMP280;64699;0.000;0.000;2022-11-20T12:45:28;100094.28;;;17.03
76007;BMP280;64699;0.000;0.000;2022-11-20T12:53:16;100074.44;;;17.10
76007;BMP280;64699;0.000;0.000;2022-11-20T12:55:49;100068.31;;;17.04
76007;BMP280;64699;0.000;0.000;2022-11-20T13:00:56;100069.78;;;17.05
76007;BMP280;64699;0.000;0.000;2022-11-20T13:03:41;100068.97;;;17.10
76007;BMP280;64699;0.000;0.000;2022-11-20T13:08:38;100069.19;;;17.12
76007;BMP280;64699;0.000;0.000;2022-11-20T13:14:04;100061.06;;;17.07
76007;BMP280;64699;0.000;0.000;2022-11-20T13:19:05;100053.09;;;17.03
76007;BMP280;64699;0.000;0.000;2022-11-20T13:24:06;100051.00;;;17.09
76007;BMP280;64699;0.000;0.000;2022-11-20T13:26:33;100046.06;;;17.08
76007;BMP280;64699;0.000;0.000;2022-11-20T13:29:09;100050.47;;;17.11
76007;BMP280;64699;0.000;0.000;2022-11-20T13:31:43;100056.50;;;17.09
76007;BMP280;64699;0.000;0.000;2022-11-20T13:34:11;100052.56;;;17.05
76007;BMP280;64699;0.000;0.000;2022-11-20T13:36:48;100051.09;;;17.04
76007;BMP280;64699;0.000;0.000;2022-11-20T13:39:26;100049.41;;;17.01
76007;BMP280;64699;0.000;0.000;2022-11-20T13:41:56;100039.59;;;17.05
76007;BMP280;64699;0.000;0.000;2022-11-20T13:44:33;100041.72;;;17.12
76007;BMP280;64699;0.000;0.000;2022-11-20T13:47:01;100043.81;;;17.06
76007;BMP280;64699;0.000;0.000;2022-11-20T13:49:33;100040.69;;;17.02
76007;BMP280;64699;0.000;0.000;2022-11-20T14:02:28;100035.09;;;17.08
76007;BMP280;64699;0.000;0.000;2022-11-20T14:04:57;100033.03;;;17.08
76007;BMP280;64699;0.000;0.000;2022-11-20T14:07:31;100029.88;;;17.04
76007;BMP280;64699;0.000;0.000;2022-11-20T14:09:59;100030.63;;;17.05
76007;BMP280;64699;0.000;0.000;2022-11-20T14:12:32;100035.38;;;17.04
76007;BMP280;64699;0.000;0.000;2022-11-20T14:15:00;100030.75;;;17.12
76007;BMP280;64699;0.000;0.000;2022-11-20T14:17:31;100027.47;;;17.14
76007;BMP280;64699;0.000;0.000;2022-11-20T14:20:12;100023.69;;;17.17
76007;BMP280;64699;0.000;0.000;2022-11-20T14:22:50;100021.44;;;17.15
76007;BMP280;64699;0.000;0.000;2022-11-20T14:25:21;100015.00;;;17.13
76007;BMP280;64699;0.000;0.000;2022-11-20T14:27:56;100015.94;;;17.15
76007;BMP280;64699;0.000;0.000;2022-11-20T14:30:23;100012.59;;;17.09
76007;BMP280;64699;0.000;0.000;2022-11-20T14:32:49;100005.59;;;17.08
76007;BMP280;64699;0.000;0.000;2022-11-20T14:35:25;99992.94;;;17.05
76007;BMP280;64699;0.000;0.000;2022-11-20T14:37:53;99996.13;;;17.09
76007;BMP280;64699;0.000;0.000;2022-11-20T14:42:56;99994.94;;;17.05
76007;BMP280;64699;0.000;0.000;2022-11-20T14:45:23;99989.06;;;17.01
76007;BMP280;64699;0.000;0.000;2022-11-20T14:47:52;99991.88;;;17.08
76007;BMP280;64699;0.000;0.000;2022-11-20T14:50:19;99995.38;;;17.09
76007;BMP280;64699;0.000;0.000;2022-11-20T14:52:54;99997.59;;;17.10
76007;BMP280;64699;0.000;0.000;2022-11-20T14:55:32;99995.91;;;17.07
76007;BMP280;64699;0.000;0.000;2022-11-20T14:57:59;100006.16;;;17.07
76007;BMP280;64699;0.000;0.000;2022-11-20T15:00:26;100006.06;;;17.12
76007;BMP280;64699;0.000;0.000;2022-11-20T15:02:52;100012.59;;;17.09
76007;BMP280;64699;0.000;0.000;2022-11-20T15:08:16;99997.16;;;17.06
76007;BMP280;64699;0.000;0.000;2022-11-20T15:10:45;99998.94;;;17.04
76007;BMP280;64699;0.000;0.000;2022-11-20T15:13:12;99997.16;;;17.06
76007;BMP280;64699;0.000;0.000;2022-11-20T15:15:44;99994.44;;;17.06
76007;BMP280;64699;0.000;0.000;2022-11-20T15:18:20;99988.94;;;17.06
76007;BMP280;64699;0.000;0.000;2022-11-20T15:20:52;99977.44;;;17.08
76007;BMP280;64699;0.000;0.000;2022-11-20T15:23:20;99975.22;;;17.06
76007;BMP280;64699;0.000;0.000;2022-11-20T15:25:47;99977.75;;;17.04
76007;BMP280;64699;0.000;0.000;2022-11-20T15:28:16;99981.03;;;17.03
76007;BMP280;64699;0.000;0.000;2022-11-20T15:30:43;99979.97;;;17.06
76007;BMP280;64699;0.000;0.000;2022-11-20T15:33:10;99979.66;;;17.09
76007;BMP280;64699;0.000;0.000;2022-11-20T15:35:35;99988.22;;;17.06
76007;BMP280;64699;0.000;0.000;2022-11-20T15:38:02;99976.69;;;17.07
76007;BMP280;64699;0.000;0.000;2022-11-20T15:40:27;99975.97;;;17.07
76007;BMP280;64699;0.000;0.000;2022-11-20T15:42:53;99974.56;;;17.00
76007;BMP280;64699;0.000;0.000;2022-11-20T15:45:40;99978.84;;;17.01